Nearby METAR Reports

 

KSLC - Salt Lake City, Utah, USA
Distance from station: SW 8mi, 13km
Updated: Sat, 24-Feb-2018 7:54am MST
Overcast
Overcast
 Wind from ESE
Wind: ESE 8 mph , 13 km/h
Temperature: 21°F , -6°C
Wind Chill: 11°F , -12°C
Dew Point: 16°F , -9°C
Humidity: 80%
Barometer: 30.16 inHg , 1021.3 hPa
Clouds: Overcast
Visibility: 9 miles , 14 km
Cloud details: Mostly cloudy 7000 ft
Overcast 10000 ft
2018/02/24 14:54 KSLC 241454Z 12007KT 9SM BKN070 OVC100 M06/M09 A3016 RMK AO2 SLP245 T10611094 53002
KU42 - Salt Lake Muni, Utah, USA
Distance from station: SSW 18mi, 28km
Updated: Sat, 24-Feb-2018 8:35am MST
Overcast
Overcast
 Wind from S
Wind: S 12 mph , 19 km/h
Temperature: 18°F , -8°C
Wind Chill: 5°F , -15°C
Dew Point: 16°F , -9°C
Humidity: 93%
Barometer: 30.15 inHg , 1021 hPa
Clouds: Overcast
Visibility: 10 miles , 16 km
Cloud details: Overcast 7500 ft
2018/02/24 15:35 KU42 241535Z AUTO 17010KT 10SM OVC075 M08/M09 A3015 RMK AO1 T10781093
 
KHIF - Hill Afb/Ogden, Utah, USA
Distance from station: NNW 19mi, 30km
Updated: Sat, 24-Feb-2018 8:25am MST
Overcast
Overcast
 Wind from S
Wind: S 7 mph , 11 km/h
Temperature: 18°F , -8°C
Wind Chill: 9°F , -13°C
Dew Point: 14°F , -10°C
Humidity: 86%
Barometer: 30.12 inHg , 1020 hPa
Clouds: Overcast
Visibility: 10 miles , 16 km
Cloud details: Overcast 6000 ft
2018/02/24 15:25 KHIF 241525Z AUTO 18006KT 10SM OVC060 M08/M10 A3012 RMK AO2 SNE11SNB13E25 SLP244 FZRANO $
KOGD - Ogden, Utah, USA
Distance from station: NNW 25mi, 40km
Updated: Sat, 24-Feb-2018 7:53am MST
Overcast
Overcast
 Wind from SSE
Wind: SSE 8 mph , 13 km/h
Temperature: 21°F , -6°C
Wind Chill: 11°F , -12°C
Dew Point: 12°F , -11°C
Humidity: 68%
Barometer: 30.13 inHg , 1020.3 hPa
Clouds: Overcast
Visibility: 10 miles , 16 km
Cloud details: Overcast 6000 ft
2018/02/24 14:53 KOGD 241453Z 16007KT 10SM OVC060 M06/M11 A3013 RMK AO2 SLP240 T10611106 51003
 
K36U - Heber/Russ Mcdon, Utah, USA
Distance from station: SE 34mi, 55km
Updated: Wed, 11-Oct-2017 6:50pm MDT
NOT Current
Clear
Clear
 Wind from SSW
Wind: SSW 10 mph , 17 km/h, Gust: 18 mph , 30 km/h
Temperature: 63°F , 17°C
Dew Point: 16°F , -9°C
Humidity: 16%
Barometer: 29.87 inHg , 1011.5 hPa
Clouds: Clear
Visibility: 10 miles , 16 km
2017/10/12 00:50 K36U 120050Z AUTO 21009G16KT 10SM CLR 17/M09 A2987 RMK AO2
KPVU - Provo Muni, Utah, USA
Distance from station: S 45mi, 72km
Updated: Sat, 24-Feb-2018 7:56am MST
Mostly cloudy
Mostly cloudy
 Wind from E
Wind: E 3 mph , 6 km/h
Temperature: 12°F , -11°C
Dew Point: 9°F , -13°C
Humidity: 85%
Barometer: 30.20 inHg , 1022.7 hPa
Clouds: Mostly cloudy
Visibility: 10 miles , 16 km
Cloud details: Mostly cloudy 9000 ft
2018/02/24 14:56 KPVU 241456Z 09003KT 10SM BKN090 M11/M13 A3020 RMK AO2 SLP274 T11111133 53003